sensor_id;sensor_type;location;lat;lon;timestamp;P1;durP1;ratioP1;P2;durP2;ratioP2
27305;SDS011;14792;50.886;6.468;2022-10-16T00:02:22;1.85;;;1.12;;
27305;SDS011;14792;50.886;6.468;2022-10-16T00:05:23;3.67;;;1.52;;
27305;SDS011;14792;50.886;6.468;2022-10-16T00:08:25;3.08;;;1.17;;
27305;SDS011;14792;50.886;6.468;2022-10-16T00:11:28;5.37;;;1.50;;
27305;SDS011;14792;50.886;6.468;2022-10-16T00:14:28;4.45;;;1.40;;
27305;SDS011;14792;50.886;6.468;2022-10-16T00:17:30;3.90;;;1.40;;
27305;SDS011;14792;50.886;6.468;2022-10-16T00:20:33;3.62;;;1.37;;
27305;SDS011;14792;50.886;6.468;2022-10-16T00:23:33;4.95;;;1.20;;
27305;SDS011;14792;50.886;6.468;2022-10-16T00:26:35;3.02;;;1.37;;
27305;SDS011;14792;50.886;6.468;2022-10-16T00:29:36;5.78;;;1.72;;
27305;SDS011;14792;50.886;6.468;2022-10-16T00:32:38;5.30;;;1.42;;
27305;SDS011;14792;50.886;6.468;2022-10-16T00:35:39;5.22;;;1.70;;
27305;SDS011;14792;50.886;6.468;2022-10-16T00:38:41;1.82;;;1.37;;
27305;SDS011;14792;50.886;6.468;2022-10-16T00:41:42;2.42;;;1.30;;
27305;SDS011;14792;50.886;6.468;2022-10-16T00:44:55;1.92;;;1.42;;
27305;SDS011;14792;50.886;6.468;2022-10-16T00:47:55;2.10;;;1.55;;
27305;SDS011;14792;50.886;6.468;2022-10-16T00:50:57;1.42;;;1.20;;
27305;SDS011;14792;50.886;6.468;2022-10-16T00:53:59;2.08;;;1.75;;
27305;SDS011;14792;50.886;6.468;2022-10-16T00:57:01;2.72;;;1.70;;
27305;SDS011;14792;50.886;6.468;2022-10-16T01:00:06;2.58;;;1.50;;
27305;SDS011;14792;50.886;6.468;2022-10-16T01:03:22;2.30;;;1.47;;
27305;SDS011;14792;50.886;6.468;2022-10-16T01:09:14;5.40;;;1.47;;
27305;SDS011;14792;50.886;6.468;2022-10-16T01:19:26;2.45;;;1.60;;
27305;SDS011;14792;50.886;6.468;2022-10-16T01:22:22;3.92;;;1.85;;
27305;SDS011;14792;50.886;6.468;2022-10-16T01:25:36;2.12;;;1.50;;
27305;SDS011;14792;50.886;6.468;2022-10-16T01:28:56;6.33;;;1.80;;
27305;SDS011;14792;50.886;6.468;2022-10-16T01:31:59;6.12;;;1.72;;
27305;SDS011;14792;50.886;6.468;2022-10-16T01:34:59;2.83;;;1.60;;
27305;SDS011;14792;50.886;6.468;2022-10-16T01:38:16;4.10;;;1.55;;
27305;SDS011;14792;50.886;6.468;2022-10-16T01:41:28;3.75;;;1.30;;
27305;SDS011;14792;50.886;6.468;2022-10-16T01:44:30;2.20;;;1.30;;
27305;SDS011;14792;50.886;6.468;2022-10-16T01:47:31;2.95;;;1.27;;
27305;SDS011;14792;50.886;6.468;2022-10-16T01:50:33;1.10;;;1.00;;
27305;SDS011;14792;50.886;6.468;2022-10-16T01:53:34;2.37;;;1.42;;
27305;SDS011;14792;50.886;6.468;2022-10-16T01:56:36;2.15;;;1.22;;
27305;SDS011;14792;50.886;6.468;2022-10-16T01:59:41;4.10;;;1.17;;
27305;SDS011;14792;50.886;6.468;2022-10-16T02:02:40;3.40;;;1.22;;
27305;SDS011;14792;50.886;6.468;2022-10-16T02:05:47;2.70;;;1.47;;
27305;SDS011;14792;50.886;6.468;2022-10-16T02:08:48;3.55;;;1.50;;
27305;SDS011;14792;50.886;6.468;2022-10-16T02:11:50;2.60;;;1.45;;
27305;SDS011;14792;50.886;6.468;2022-10-16T02:14:52;3.25;;;1.35;;
27305;SDS011;14792;50.886;6.468;2022-10-16T02:17:54;2.50;;;1.60;;
27305;SDS011;14792;50.886;6.468;2022-10-16T02:21:00;4.05;;;1.65;;
27305;SDS011;14792;50.886;6.468;2022-10-16T02:24:12;2.25;;;1.40;;
27305;SDS011;14792;50.886;6.468;2022-10-16T02:27:25;4.70;;;1.52;;
27305;SDS011;14792;50.886;6.468;2022-10-16T02:30:45;3.60;;;1.57;;
27305;SDS011;14792;50.886;6.468;2022-10-16T02:33:26;2.47;;;1.47;;
27305;SDS011;14792;50.886;6.468;2022-10-16T02:36:28;1.90;;;1.35;;
27305;SDS011;14792;50.886;6.468;2022-10-16T02:39:29;2.52;;;1.40;;
27305;SDS011;14792;50.886;6.468;2022-10-16T02:42:34;4.45;;;1.40;;
27305;SDS011;14792;50.886;6.468;2022-10-16T02:45:35;4.97;;;1.57;;
27305;SDS011;14792;50.886;6.468;2022-10-16T02:48:37;2.22;;;1.22;;
27305;SDS011;14792;50.886;6.468;2022-10-16T02:51:38;3.90;;;1.92;;
27305;SDS011;14792;50.886;6.468;2022-10-16T02:54:40;2.08;;;1.12;;
27305;SDS011;14792;50.886;6.468;2022-10-16T02:57:42;4.97;;;1.02;;
27305;SDS011;14792;50.886;6.468;2022-10-16T03:00:43;3.30;;;0.95;;
27305;SDS011;14792;50.886;6.468;2022-10-16T03:03:45;2.12;;;1.10;;
27305;SDS011;14792;50.886;6.468;2022-10-16T03:06:46;1.20;;;0.85;;
27305;SDS011;14792;50.886;6.468;2022-10-16T03:09:48;3.25;;;0.85;;
27305;SDS011;14792;50.886;6.468;2022-10-16T03:12:50;4.08;;;0.90;;
27305;SDS011;14792;50.886;6.468;2022-10-16T03:15:51;3.77;;;1.00;;
27305;SDS011;14792;50.886;6.468;2022-10-16T03:18:53;4.53;;;1.17;;
27305;SDS011;14792;50.886;6.468;2022-10-16T03:21:55;2.87;;;1.10;;
27305;SDS011;14792;50.886;6.468;2022-10-16T03:24:57;1.30;;;0.95;;
27305;SDS011;14792;50.886;6.468;2022-10-16T03:27:58;4.00;;;1.42;;
27305;SDS011;14792;50.886;6.468;2022-10-16T03:31:00;2.33;;;1.30;;
27305;SDS011;14792;50.886;6.468;2022-10-16T03:34:01;1.92;;;1.25;;
27305;SDS011;14792;50.886;6.468;2022-10-16T03:37:03;1.27;;;1.17;;
27305;SDS011;14792;50.886;6.468;2022-10-16T03:40:05;4.05;;;1.40;;
27305;SDS011;14792;50.886;6.468;2022-10-16T03:43:06;1.87;;;1.37;;
27305;SDS011;14792;50.886;6.468;2022-10-16T03:46:08;1.30;;;1.20;;
27305;SDS011;14792;50.886;6.468;2022-10-16T03:49:09;1.92;;;1.40;;
27305;SDS011;14792;50.886;6.468;2022-10-16T03:52:11;3.22;;;1.17;;
27305;SDS011;14792;50.886;6.468;2022-10-16T03:55:13;2.75;;;1.35;;
27305;SDS011;14792;50.886;6.468;2022-10-16T03:58:14;2.83;;;1.20;;
27305;SDS011;14792;50.886;6.468;2022-10-16T04:01:16;3.92;;;1.30;;
27305;SDS011;14792;50.886;6.468;2022-10-16T04:04:17;3.05;;;1.10;;
27305;SDS011;14792;50.886;6.468;2022-10-16T04:07:19;3.90;;;1.32;;
27305;SDS011;14792;50.886;6.468;2022-10-16T04:10:21;3.58;;;1.45;;
27305;SDS011;14792;50.886;6.468;2022-10-16T04:13:23;2.72;;;1.50;;
27305;SDS011;14792;50.886;6.468;2022-10-16T04:16:24;1.50;;;1.20;;
27305;SDS011;14792;50.886;6.468;2022-10-16T04:19:26;1.98;;;1.20;;
27305;SDS011;14792;50.886;6.468;2022-10-16T04:22:28;1.45;;;1.20;;
27305;SDS011;14792;50.886;6.468;2022-10-16T04:25:30;1.50;;;1.15;;
27305;SDS011;14792;50.886;6.468;2022-10-16T04:28:31;4.03;;;1.77;;
27305;SDS011;14792;50.886;6.468;2022-10-16T04:31:33;2.37;;;1.55;;
27305;SDS011;14792;50.886;6.468;2022-10-16T04:34:34;16.90;;;5.70;;
27305;SDS011;14792;50.886;6.468;2022-10-16T04:37:36;5.78;;;2.95;;
27305;SDS011;14792;50.886;6.468;2022-10-16T04:40:37;2.20;;;1.62;;
27305;SDS011;14792;50.886;6.468;2022-10-16T04:43:39;2.37;;;1.87;;
27305;SDS011;14792;50.886;6.468;2022-10-16T04:46:41;7.28;;;3.98;;
27305;SDS011;14792;50.886;6.468;2022-10-16T04:49:42;3.47;;;1.90;;
27305;SDS011;14792;50.886;6.468;2022-10-16T04:52:44;5.28;;;1.92;;
27305;SDS011;14792;50.886;6.468;2022-10-16T04:55:45;5.33;;;2.10;;
27305;SDS011;14792;50.886;6.468;2022-10-16T04:58:47;2.60;;;2.37;;
27305;SDS011;14792;50.886;6.468;2022-10-16T05:01:49;3.90;;;2.42;;
27305;SDS011;14792;50.886;6.468;2022-10-16T05:04:51;3.95;;;2.17;;
27305;SDS011;14792;50.886;6.468;2022-10-16T05:07:53;3.70;;;2.02;;
27305;SDS011;14792;50.886;6.468;2022-10-16T05:10:55;7.37;;;2.67;;
27305;SDS011;14792;50.886;6.468;2022-10-16T05:13:57;7.75;;;2.33;;
27305;SDS011;14792;50.886;6.468;2022-10-16T05:16:59;17.27;;;4.95;;
27305;SDS011;14792;50.886;6.468;2022-10-16T05:20:00;9.10;;;3.12;;
27305;SDS011;14792;50.886;6.468;2022-10-16T05:23:02;10.78;;;3.30;;
27305;SDS011;14792;50.886;6.468;2022-10-16T05:26:03;22.90;;;7.22;;
27305;SDS011;14792;50.886;6.468;2022-10-16T05:29:05;15.83;;;5.60;;
27305;SDS011;14792;50.886;6.468;2022-10-16T05:32:06;24.32;;;8.33;;
27305;SDS011;14792;50.886;6.468;2022-10-16T05:35:08;34.40;;;11.50;;
27305;SDS011;14792;50.886;6.468;2022-10-16T05:38:10;46.73;;;13.65;;
27305;SDS011;14792;50.886;6.468;2022-10-16T05:41:11;22.62;;;7.95;;
27305;SDS011;14792;50.886;6.468;2022-10-16T05:44:16;25.77;;;9.63;;
27305;SDS011;14792;50.886;6.468;2022-10-16T05:47:17;31.25;;;11.28;;
27305;SDS011;14792;50.886;6.468;2022-10-16T05:50:19;16.87;;;6.65;;
27305;SDS011;14792;50.886;6.468;2022-10-16T05:53:22;20.32;;;8.40;;
27305;SDS011;14792;50.886;6.468;2022-10-16T05:56:24;23.85;;;10.03;;
27305;SDS011;14792;50.886;6.468;2022-10-16T05:59:26;20.12;;;7.97;;
27305;SDS011;14792;50.886;6.468;2022-10-16T06:02:27;13.20;;;5.72;;
27305;SDS011;14792;50.886;6.468;2022-10-16T06:05:29;16.17;;;8.00;;
27305;SDS011;14792;50.886;6.468;2022-10-16T06:08:31;16.20;;;6.70;;
27305;SDS011;14792;50.886;6.468;2022-10-16T06:11:32;13.45;;;7.25;;
27305;SDS011;14792;50.886;6.468;2022-10-16T06:14:34;15.68;;;8.08;;
27305;SDS011;14792;50.886;6.468;2022-10-16T06:17:35;17.57;;;8.98;;
27305;SDS011;14792;50.886;6.468;2022-10-16T06:20:37;21.93;;;9.03;;
27305;SDS011;14792;50.886;6.468;2022-10-16T06:23:39;18.20;;;9.63;;
27305;SDS011;14792;50.886;6.468;2022-10-16T06:26:40;13.20;;;7.50;;
27305;SDS011;14792;50.886;6.468;2022-10-16T06:29:42;11.05;;;6.47;;
27305;SDS011;14792;50.886;6.468;2022-10-16T06:32:43;8.20;;;4.87;;
27305;SDS011;14792;50.886;6.468;2022-10-16T06:35:45;3.45;;;2.72;;
27305;SDS011;14792;50.886;6.468;2022-10-16T06:38:47;5.35;;;3.15;;
27305;SDS011;14792;50.886;6.468;2022-10-16T06:41:48;3.08;;;2.72;;
27305;SDS011;14792;50.886;6.468;2022-10-16T06:44:51;5.87;;;2.72;;
27305;SDS011;14792;50.886;6.468;2022-10-16T06:47:53;4.83;;;3.15;;
27305;SDS011;14792;50.886;6.468;2022-10-16T06:53:56;4.08;;;2.37;;
27305;SDS011;14792;50.886;6.468;2022-10-16T06:56:57;3.85;;;2.33;;
27305;SDS011;14792;50.886;6.468;2022-10-16T06:59:59;2.65;;;1.92;;
27305;SDS011;14792;50.886;6.468;2022-10-16T07:03:01;4.45;;;2.22;;
27305;SDS011;14792;50.886;6.468;2022-10-16T07:06:02;5.67;;;2.77;;
27305;SDS011;14792;50.886;6.468;2022-10-16T07:09:05;2.72;;;2.10;;
27305;SDS011;14792;50.886;6.468;2022-10-16T07:12:06;2.45;;;1.40;;
27305;SDS011;14792;50.886;6.468;2022-10-16T07:15:07;4.12;;;1.57;;
27305;SDS011;14792;50.886;6.468;2022-10-16T07:18:09;9.48;;;2.05;;
27305;SDS011;14792;50.886;6.468;2022-10-16T07:21:12;2.65;;;1.30;;
27305;SDS011;14792;50.886;6.468;2022-10-16T07:24:13;3.95;;;1.20;;
27305;SDS011;14792;50.886;6.468;2022-10-16T07:27:14;4.95;;;1.50;;
27305;SDS011;14792;50.886;6.468;2022-10-16T07:30:16;2.25;;;1.30;;
27305;SDS011;14792;50.886;6.468;2022-10-16T07:33:17;2.40;;;1.40;;
27305;SDS011;14792;50.886;6.468;2022-10-16T07:36:20;3.55;;;1.37;;
27305;SDS011;14792;50.886;6.468;2022-10-16T07:39:21;2.67;;;1.40;;
27305;SDS011;14792;50.886;6.468;2022-10-16T07:42:23;2.20;;;1.02;;
27305;SDS011;14792;50.886;6.468;2022-10-16T07:45:24;6.78;;;1.65;;
27305;SDS011;14792;50.886;6.468;2022-10-16T07:48:30;2.42;;;1.00;;
27305;SDS011;14792;50.886;6.468;2022-10-16T07:51:30;3.75;;;1.42;;
27305;SDS011;14792;50.886;6.468;2022-10-16T07:54:32;3.17;;;1.20;;
27305;SDS011;14792;50.886;6.468;2022-10-16T07:57:33;3.52;;;1.52;;
27305;SDS011;14792;50.886;6.468;2022-10-16T08:00:35;3.17;;;1.22;;
27305;SDS011;14792;50.886;6.468;2022-10-16T08:03:37;1.50;;;0.80;;
27305;SDS011;14792;50.886;6.468;2022-10-16T08:06:39;2.45;;;1.02;;
27305;SDS011;14792;50.886;6.468;2022-10-16T08:09:40;4.65;;;0.82;;
27305;SDS011;14792;50.886;6.468;2022-10-16T08:12:42;2.37;;;0.90;;
27305;SDS011;14792;50.886;6.468;2022-10-16T08:15:43;3.62;;;0.68;;
27305;SDS011;14792;50.886;6.468;2022-10-16T08:18:45;3.98;;;0.80;;
27305;SDS011;14792;50.886;6.468;2022-10-16T08:21:47;3.15;;;0.88;;
27305;SDS011;14792;50.886;6.468;2022-10-16T08:24:48;6.62;;;0.70;;
27305;SDS011;14792;50.886;6.468;2022-10-16T08:27:50;2.00;;;0.90;;
27305;SDS011;14792;50.886;6.468;2022-10-16T08:30:53;1.80;;;1.00;;
27305;SDS011;14792;50.886;6.468;2022-10-16T08:33:55;3.72;;;0.98;;
27305;SDS011;14792;50.886;6.468;2022-10-16T08:36:56;2.75;;;0.70;;
27305;SDS011;14792;50.886;6.468;2022-10-16T08:39:58;2.22;;;0.70;;
27305;SDS011;14792;50.886;6.468;2022-10-16T08:46:21;5.78;;;1.00;;
27305;SDS011;14792;50.886;6.468;2022-10-16T08:49:26;2.02;;;0.65;;
27305;SDS011;14792;50.886;6.468;2022-10-16T08:52:32;3.80;;;0.65;;
27305;SDS011;14792;50.886;6.468;2022-10-16T08:55:43;1.80;;;0.60;;
27305;SDS011;14792;50.886;6.468;2022-10-16T08:58:44;2.52;;;0.80;;
27305;SDS011;14792;50.886;6.468;2022-10-16T09:01:46;4.67;;;0.75;;
27305;SDS011;14792;50.886;6.468;2022-10-16T09:04:58;1.72;;;0.88;;
27305;SDS011;14792;50.886;6.468;2022-10-16T09:11:14;3.20;;;0.75;;
27305;SDS011;14792;50.886;6.468;2022-10-16T09:14:32;2.20;;;0.53;;
27305;SDS011;14792;50.886;6.468;2022-10-16T09:17:55;5.53;;;0.50;;
27305;SDS011;14792;50.886;6.468;2022-10-16T09:20:51;2.50;;;0.42;;
27305;SDS011;14792;50.886;6.468;2022-10-16T09:24:06;2.83;;;0.65;;
27305;SDS011;14792;50.886;6.468;2022-10-16T09:27:02;3.10;;;0.60;;
27305;SDS011;14792;50.886;6.468;2022-10-16T09:30:13;1.95;;;0.68;;
27305;SDS011;14792;50.886;6.468;2022-10-16T09:33:15;2.17;;;0.70;;
27305;SDS011;14792;50.886;6.468;2022-10-16T09:36:16;4.72;;;0.88;;
27305;SDS011;14792;50.886;6.468;2022-10-16T09:39:18;3.40;;;0.80;;
27305;SDS011;14792;50.886;6.468;2022-10-16T09:45:33;3.35;;;0.90;;
27305;SDS011;14792;50.886;6.468;2022-10-16T09:48:44;1.65;;;0.72;;
27305;SDS011;14792;50.886;6.468;2022-10-16T09:51:46;8.15;;;0.90;;
27305;SDS011;14792;50.886;6.468;2022-10-16T09:55:00;1.77;;;0.75;;
27305;SDS011;14792;50.886;6.468;2022-10-16T09:58:01;6.05;;;1.05;;
27305;SDS011;14792;50.886;6.468;2022-10-16T10:01:02;1.65;;;0.78;;
27305;SDS011;14792;50.886;6.468;2022-10-16T10:04:04;2.87;;;0.60;;
27305;SDS011;14792;50.886;6.468;2022-10-16T10:07:06;2.58;;;0.80;;
27305;SDS011;14792;50.886;6.468;2022-10-16T10:10:18;4.00;;;0.82;;
27305;SDS011;14792;50.886;6.468;2022-10-16T10:13:22;6.87;;;1.10;;
27305;SDS011;14792;50.886;6.468;2022-10-16T10:16:25;4.00;;;0.85;;
27305;SDS011;14792;50.886;6.468;2022-10-16T10:19:27;2.62;;;0.47;;
27305;SDS011;14792;50.886;6.468;2022-10-16T10:26:34;3.65;;;0.50;;
27305;SDS011;14792;50.886;6.468;2022-10-16T10:38:29;2.10;;;0.62;;
27305;SDS011;14792;50.886;6.468;2022-10-16T10:45:08;2.90;;;0.60;;
27305;SDS011;14792;50.886;6.468;2022-10-16T10:51:12;1.90;;;0.70;;
27305;SDS011;14792;50.886;6.468;2022-10-16T11:03:53;4.08;;;0.78;;
27305;SDS011;14792;50.886;6.468;2022-10-16T11:06:52;1.98;;;0.60;;
27305;SDS011;14792;50.886;6.468;2022-10-16T11:11:00;2.15;;;0.90;;
27305;SDS011;14792;50.886;6.468;2022-10-16T11:13:19;1.70;;;0.70;;
27305;SDS011;14792;50.886;6.468;2022-10-16T11:16:30;2.37;;;0.80;;
27305;SDS011;14792;50.886;6.468;2022-10-16T11:19:41;1.85;;;0.47;;
27305;SDS011;14792;50.886;6.468;2022-10-16T11:22:42;4.50;;;0.80;;
27305;SDS011;14792;50.886;6.468;2022-10-16T11:25:48;6.97;;;1.00;;
27305;SDS011;14792;50.886;6.468;2022-10-16T11:28:54;2.85;;;0.98;;
27305;SDS011;14792;50.886;6.468;2022-10-16T11:31:59;4.08;;;0.88;;
27305;SDS011;14792;50.886;6.468;2022-10-16T11:35:02;5.75;;;1.40;;
27305;SDS011;14792;50.886;6.468;2022-10-16T11:38:02;4.12;;;0.55;;
27305;SDS011;14792;50.886;6.468;2022-10-16T11:48:14;3.10;;;0.68;;
27305;SDS011;14792;50.886;6.468;2022-10-16T11:51:20;3.92;;;0.80;;
27305;SDS011;14792;50.886;6.468;2022-10-16T11:57:29;1.85;;;0.50;;
27305;SDS011;14792;50.886;6.468;2022-10-16T12:00:38;2.77;;;0.60;;
27305;SDS011;14792;50.886;6.468;2022-10-16T12:03:48;3.40;;;0.50;;
27305;SDS011;14792;50.886;6.468;2022-10-16T12:07:08;3.17;;;0.60;;
27305;SDS011;14792;50.886;6.468;2022-10-16T12:13:29;1.35;;;0.60;;
27305;SDS011;14792;50.886;6.468;2022-10-16T12:16:33;2.15;;;0.72;;
27305;SDS011;14792;50.886;6.468;2022-10-16T12:19:35;2.05;;;0.93;;
27305;SDS011;14792;50.886;6.468;2022-10-16T12:22:36;3.15;;;0.78;;
27305;SDS011;14792;50.886;6.468;2022-10-16T12:25:39;3.42;;;0.72;;
27305;SDS011;14792;50.886;6.468;2022-10-16T12:28:39;5.75;;;0.72;;
27305;SDS011;14792;50.886;6.468;2022-10-16T12:31:45;2.35;;;0.95;;
27305;SDS011;14792;50.886;6.468;2022-10-16T12:34:45;4.95;;;0.65;;
27305;SDS011;14792;50.886;6.468;2022-10-16T12:37:47;3.12;;;0.53;;
27305;SDS011;14792;50.886;6.468;2022-10-16T12:41:00;2.92;;;0.70;;
27305;SDS011;14792;50.886;6.468;2022-10-16T12:43:57;4.47;;;0.80;;
27305;SDS011;14792;50.886;6.468;2022-10-16T12:46:58;3.35;;;0.65;;
27305;SDS011;14792;50.886;6.468;2022-10-16T12:53:03;3.77;;;0.68;;
27305;SDS011;14792;50.886;6.468;2022-10-16T12:56:09;0.90;;;0.60;;
27305;SDS011;14792;50.886;6.468;2022-10-16T13:05:53;6.22;;;0.62;;
27305;SDS011;14792;50.886;6.468;2022-10-16T13:19:02;3.02;;;0.50;;
27305;SDS011;14792;50.886;6.468;2022-10-16T13:22:15;2.90;;;0.57;;
27305;SDS011;14792;50.886;6.468;2022-10-16T13:25:35;2.40;;;0.90;;
27305;SDS011;14792;50.886;6.468;2022-10-16T13:28:34;1.77;;;0.47;;
27305;SDS011;14792;50.886;6.468;2022-10-16T13:31:37;1.52;;;0.45;;
27305;SDS011;14792;50.886;6.468;2022-10-16T13:34:47;3.47;;;0.42;;
27305;SDS011;14792;50.886;6.468;2022-10-16T13:37:45;3.40;;;0.60;;
27305;SDS011;14792;50.886;6.468;2022-10-16T13:40:50;5.75;;;1.00;;
27305;SDS011;14792;50.886;6.468;2022-10-16T13:43:55;4.22;;;0.90;;
27305;SDS011;14792;50.886;6.468;2022-10-16T13:47:00;3.30;;;0.95;;
27305;SDS011;14792;50.886;6.468;2022-10-16T13:50:03;5.70;;;0.82;;
27305;SDS011;14792;50.886;6.468;2022-10-16T13:53:04;3.00;;;0.60;;
27305;SDS011;14792;50.886;6.468;2022-10-16T13:56:06;8.40;;;1.20;;
27305;SDS011;14792;50.886;6.468;2022-10-16T13:59:22;8.53;;;1.17;;
27305;SDS011;14792;50.886;6.468;2022-10-16T14:02:29;12.15;;;1.27;;
27305;SDS011;14792;50.886;6.468;2022-10-16T14:05:26;7.97;;;1.12;;
27305;SDS011;14792;50.886;6.468;2022-10-16T14:08:28;6.28;;;0.93;;
27305;SDS011;14792;50.886;6.468;2022-10-16T14:11:29;7.53;;;0.90;;
27305;SDS011;14792;50.886;6.468;2022-10-16T14:14:34;10.30;;;1.00;;
27305;SDS011;14792;50.886;6.468;2022-10-16T14:17:33;14.63;;;1.52;;
27305;SDS011;14792;50.886;6.468;2022-10-16T14:20:34;12.70;;;1.45;;
27305;SDS011;14792;50.886;6.468;2022-10-16T14:23:36;9.75;;;1.60;;
27305;SDS011;14792;50.886;6.468;2022-10-16T14:26:44;6.55;;;1.37;;
27305;SDS011;14792;50.886;6.468;2022-10-16T14:29:45;8.55;;;2.08;;
27305;SDS011;14792;50.886;6.468;2022-10-16T14:32:57;4.72;;;1.00;;
27305;SDS011;14792;50.886;6.468;2022-10-16T14:36:02;12.93;;;1.75;;
27305;SDS011;14792;50.886;6.468;2022-10-16T14:39:03;10.63;;;1.45;;
27305;SDS011;14792;50.886;6.468;2022-10-16T14:42:04;7.15;;;1.27;;
27305;SDS011;14792;50.886;6.468;2022-10-16T14:45:07;7.55;;;1.45;;
27305;SDS011;14792;50.886;6.468;2022-10-16T14:48:14;9.98;;;1.20;;
27305;SDS011;14792;50.886;6.468;2022-10-16T14:51:19;10.00;;;1.07;;
27305;SDS011;14792;50.886;6.468;2022-10-16T14:54:17;13.20;;;1.17;;
27305;SDS011;14792;50.886;6.468;2022-10-16T14:57:19;8.28;;;1.57;;
27305;SDS011;14792;50.886;6.468;2022-10-16T15:00:21;9.98;;;1.10;;
27305;SDS011;14792;50.886;6.468;2022-10-16T15:03:21;9.30;;;1.50;;
27305;SDS011;14792;50.886;6.468;2022-10-16T15:06:24;9.43;;;1.35;;
27305;SDS011;14792;50.886;6.468;2022-10-16T15:09:26;9.40;;;1.25;;
27305;SDS011;14792;50.886;6.468;2022-10-16T15:12:28;10.38;;;1.15;;
27305;SDS011;14792;50.886;6.468;2022-10-16T15:15:32;5.30;;;1.05;;
27305;SDS011;14792;50.886;6.468;2022-10-16T15:18:36;7.10;;;1.10;;
27305;SDS011;14792;50.886;6.468;2022-10-16T15:21:38;8.93;;;1.37;;
27305;SDS011;14792;50.886;6.468;2022-10-16T15:24:40;11.40;;;1.17;;
27305;SDS011;14792;50.886;6.468;2022-10-16T15:27:41;8.50;;;1.10;;
27305;SDS011;14792;50.886;6.468;2022-10-16T15:30:43;9.40;;;1.17;;
27305;SDS011;14792;50.886;6.468;2022-10-16T15:33:51;10.23;;;1.20;;
27305;SDS011;14792;50.886;6.468;2022-10-16T15:36:55;5.45;;;0.85;;
27305;SDS011;14792;50.886;6.468;2022-10-16T15:39:57;6.83;;;1.00;;
27305;SDS011;14792;50.886;6.468;2022-10-16T15:42:58;5.17;;;0.80;;
27305;SDS011;14792;50.886;6.468;2022-10-16T15:46:02;6.08;;;0.95;;
27305;SDS011;14792;50.886;6.468;2022-10-16T15:49:02;3.52;;;0.98;;
27305;SDS011;14792;50.886;6.468;2022-10-16T15:52:04;3.22;;;0.53;;
27305;SDS011;14792;50.886;6.468;2022-10-16T15:55:06;6.72;;;0.70;;
27305;SDS011;14792;50.886;6.468;2022-10-16T15:58:07;5.47;;;0.80;;
27305;SDS011;14792;50.886;6.468;2022-10-16T16:01:08;2.33;;;0.60;;
27305;SDS011;14792;50.886;6.468;2022-10-16T16:04:10;4.37;;;0.95;;
27305;SDS011;14792;50.886;6.468;2022-10-16T16:07:12;17.27;;;9.85;;
27305;SDS011;14792;50.886;6.468;2022-10-16T16:10:13;6.83;;;2.50;;
27305;SDS011;14792;50.886;6.468;2022-10-16T16:13:15;5.85;;;0.90;;
27305;SDS011;14792;50.886;6.468;2022-10-16T16:16:16;6.83;;;1.20;;
27305;SDS011;14792;50.886;6.468;2022-10-16T16:19:18;4.72;;;1.30;;
27305;SDS011;14792;50.886;6.468;2022-10-16T16:22:20;7.30;;;1.57;;
27305;SDS011;14792;50.886;6.468;2022-10-16T16:25:22;9.58;;;1.60;;
27305;SDS011;14792;50.886;6.468;2022-10-16T16:28:25;10.88;;;1.92;;
27305;SDS011;14792;50.886;6.468;2022-10-16T16:31:27;8.53;;;1.35;;
27305;SDS011;14792;50.886;6.468;2022-10-16T16:34:28;9.20;;;3.92;;
27305;SDS011;14792;50.886;6.468;2022-10-16T16:37:30;3.65;;;1.85;;
27305;SDS011;14792;50.886;6.468;2022-10-16T16:40:32;10.53;;;6.85;;
27305;SDS011;14792;50.886;6.468;2022-10-16T16:43:34;8.38;;;5.92;;
27305;SDS011;14792;50.886;6.468;2022-10-16T16:46:35;4.90;;;2.25;;
27305;SDS011;14792;50.886;6.468;2022-10-16T16:49:37;14.13;;;2.92;;
27305;SDS011;14792;50.886;6.468;2022-10-16T16:52:39;7.62;;;2.10;;
27305;SDS011;14792;50.886;6.468;2022-10-16T16:55:40;4.12;;;1.47;;
27305;SDS011;14792;50.886;6.468;2022-10-16T16:58:44;8.83;;;1.80;;
27305;SDS011;14792;50.886;6.468;2022-10-16T17:01:43;6.53;;;1.70;;
27305;SDS011;14792;50.886;6.468;2022-10-16T17:04:45;2.95;;;1.00;;
27305;SDS011;14792;50.886;6.468;2022-10-16T17:07:47;1.42;;;0.90;;
27305;SDS011;14792;50.886;6.468;2022-10-16T17:10:49;1.50;;;0.65;;
27305;SDS011;14792;50.886;6.468;2022-10-16T17:13:50;1.72;;;0.90;;
27305;SDS011;14792;50.886;6.468;2022-10-16T17:16:52;2.62;;;0.72;;
27305;SDS011;14792;50.886;6.468;2022-10-16T17:19:54;2.10;;;0.68;;
27305;SDS011;14792;50.886;6.468;2022-10-16T17:22:56;3.37;;;0.80;;
27305;SDS011;14792;50.886;6.468;2022-10-16T17:26:02;0.93;;;0.70;;
27305;SDS011;14792;50.886;6.468;2022-10-16T17:29:09;1.15;;;0.75;;
27305;SDS011;14792;50.886;6.468;2022-10-16T17:32:10;1.70;;;0.80;;
27305;SDS011;14792;50.886;6.468;2022-10-16T17:35:11;3.45;;;1.10;;
27305;SDS011;14792;50.886;6.468;2022-10-16T17:38:13;1.47;;;0.70;;
27305;SDS011;14792;50.886;6.468;2022-10-16T17:41:16;1.50;;;0.88;;
27305;SDS011;14792;50.886;6.468;2022-10-16T17:44:16;1.47;;;0.70;;
27305;SDS011;14792;50.886;6.468;2022-10-16T17:47:21;1.42;;;0.65;;
27305;SDS011;14792;50.886;6.468;2022-10-16T17:50:23;3.67;;;0.70;;
27305;SDS011;14792;50.886;6.468;2022-10-16T17:53:25;0.70;;;0.70;;
27305;SDS011;14792;50.886;6.468;2022-10-16T17:56:27;1.22;;;0.78;;
27305;SDS011;14792;50.886;6.468;2022-10-16T17:59:28;1.30;;;0.70;;
27305;SDS011;14792;50.886;6.468;2022-10-16T18:02:30;1.05;;;0.80;;
27305;SDS011;14792;50.886;6.468;2022-10-16T18:05:31;1.80;;;1.12;;
27305;SDS011;14792;50.886;6.468;2022-10-16T18:08:33;1.10;;;0.88;;
27305;SDS011;14792;50.886;6.468;2022-10-16T18:11:37;4.60;;;0.95;;
27305;SDS011;14792;50.886;6.468;2022-10-16T18:14:39;1.55;;;1.00;;
27305;SDS011;14792;50.886;6.468;2022-10-16T18:17:40;1.80;;;1.30;;
27305;SDS011;14792;50.886;6.468;2022-10-16T18:20:42;1.32;;;0.88;;
27305;SDS011;14792;50.886;6.468;2022-10-16T18:23:44;3.42;;;1.05;;
27305;SDS011;14792;50.886;6.468;2022-10-16T18:26:47;7.25;;;1.07;;
27305;SDS011;14792;50.886;6.468;2022-10-16T18:29:47;2.45;;;1.27;;
27305;SDS011;14792;50.886;6.468;2022-10-16T18:32:48;1.00;;;0.90;;
27305;SDS011;14792;50.886;6.468;2022-10-16T18:35:50;3.10;;;1.25;;
27305;SDS011;14792;50.886;6.468;2022-10-16T18:38:53;3.00;;;1.22;;
27305;SDS011;14792;50.886;6.468;2022-10-16T18:41:55;1.30;;;0.90;;
27305;SDS011;14792;50.886;6.468;2022-10-16T18:44:56;2.58;;;1.12;;
27305;SDS011;14792;50.886;6.468;2022-10-16T18:47:58;1.00;;;0.90;;
27305;SDS011;14792;50.886;6.468;2022-10-16T18:51:06;4.65;;;1.17;;
27305;SDS011;14792;50.886;6.468;2022-10-16T18:54:10;3.17;;;1.12;;
27305;SDS011;14792;50.886;6.468;2022-10-16T18:57:11;1.42;;;1.17;;
27305;SDS011;14792;50.886;6.468;2022-10-16T19:00:13;2.92;;;1.17;;
27305;SDS011;14792;50.886;6.468;2022-10-16T19:03:15;1.25;;;1.00;;
27305;SDS011;14792;50.886;6.468;2022-10-16T19:06:16;3.83;;;1.07;;
27305;SDS011;14792;50.886;6.468;2022-10-16T19:09:22;1.70;;;1.25;;
27305;SDS011;14792;50.886;6.468;2022-10-16T19:12:23;4.30;;;1.50;;
27305;SDS011;14792;50.886;6.468;2022-10-16T19:15:25;3.83;;;1.50;;
27305;SDS011;14792;50.886;6.468;2022-10-16T19:18:27;6.10;;;1.45;;
27305;SDS011;14792;50.886;6.468;2022-10-16T19:21:29;3.12;;;1.20;;
27305;SDS011;14792;50.886;6.468;2022-10-16T19:24:30;6.85;;;2.05;;
27305;SDS011;14792;50.886;6.468;2022-10-16T19:27:32;2.70;;;1.40;;
27305;SDS011;14792;50.886;6.468;2022-10-16T19:30:37;4.25;;;1.67;;
27305;SDS011;14792;50.886;6.468;2022-10-16T19:33:38;2.15;;;1.42;;
27305;SDS011;14792;50.886;6.468;2022-10-16T19:36:39;3.08;;;1.60;;
27305;SDS011;14792;50.886;6.468;2022-10-16T19:39:41;3.85;;;1.70;;
27305;SDS011;14792;50.886;6.468;2022-10-16T19:42:42;4.50;;;1.60;;
27305;SDS011;14792;50.886;6.468;2022-10-16T19:45:44;2.60;;;1.80;;